Time;durP1;ratioP1;P1;durP2;ratioP2;P2;SDS_P1;SDS_P2;PMS_P1;PMS_P2;Temp;Humidity;BMP_temperature;BMP_pressure;BME280_temperature;BME280_humidity;BME280_pressure;Samples;Min_cycle;Max_cycle;Signal;HPM_P1;HPM_P2
2023/03/12 00:00:22;;;;;;;;;;;;;;;;;;2089130;28;20416;-87
2023/03/12 00:01:26;;;;;;;1.03;1.00;;;;;;;;;;2087886;28;20402;-89
2023/03/12 00:02:26;;;;;;;1.20;1.13;;;;;;;;;;2088072;28;20033;-88
2023/03/12 00:03:26;;;;;;;;;;;;;;;;;;2088661;28;20036;-87
2023/03/12 00:04:27;;;;;;;1.50;1.10;;;;;;;;;;2087807;28;19966;-88
2023/03/12 00:05:27;;;;;;;;;;;;;;;;;;2080062;28;20041;-88
2023/03/12 00:06:28;;;;;;;1.37;1.20;;;;;;;;;;2087914;28;20463;-89
2023/03/12 00:07:28;;;;;;;1.55;1.10;;;;;;;;;;2087989;28;20064;-89
2023/03/12 00:08:28;;;;;;;1.00;1.00;;;;;;;;;;2079593;28;20178;-90
2023/03/12 00:09:29;;;;;;;1.23;1.10;;;;;;;;;;2087520;28;20060;-86
2023/03/12 00:10:29;;;;;;;;;;;;;;;;;;2088061;28;20029;-89
2023/03/12 00:11:30;;;;;;;1.25;1.15;;;;;;;;;;2087880;28;20299;-90
2023/03/12 00:12:30;;;;;;;1.20;1.00;;;;;;;;;;2088561;28;20043;-89
2023/03/12 00:13:31;;;;;;;;;;;;;;;;;;2089250;28;20503;-89
2023/03/12 00:14:31;;;;;;;0.90;0.90;;;;;;;;;;2087872;28;19908;-88
2023/03/12 00:15:35;;;;;;;1.30;1.20;;;;;;;;;;2087529;28;20119;-90
2023/03/12 00:16:35;;;;;;;1.42;1.27;;;;;;;;;;2084383;28;20017;-89
2023/03/12 00:17:35;;;;;;;;;;;;;;;;;;2097230;28;20032;-88
2023/03/12 00:18:36;;;;;;;1.20;1.10;;;;;;;;;;2097482;28;19917;-89
2023/03/12 00:19:36;;;;;;;1.00;0.90;;;;;;;;;;2095006;28;20074;-89
2023/03/12 00:20:37;;;;;;;2.50;1.05;;;;;;;;;;2092814;28;20703;-89
2023/03/12 00:21:37;;;;;;;;;;;;;;;;;;2081768;28;20044;-88
2023/03/12 00:22:38;;;;;;;0.90;0.90;;;;;;;;;;2080358;28;19920;-89
2023/03/12 00:23:39;;;;;;;1.00;1.00;;;;;;;;;;2091150;28;20028;-88
2023/03/12 00:24:40;;;;;;;1.95;0.98;;;;;;;;;;2091076;28;20025;-89
2023/03/12 00:25:40;;;;;;;;;;;;;;;;;;2089245;28;20458;-88
2023/03/12 00:26:40;;;;;;;1.50;1.10;;;;;;;;;;2088565;28;19912;-88
2023/03/12 00:27:42;;;;;;;1.20;1.20;;;;;;;;;;2095956;28;20509;-89
2023/03/12 00:28:43;;;;;;;1.33;1.20;;;;;;;;;;2087745;28;20107;-90
2023/03/12 00:29:43;;;;;;;;;;;;;;;;;;2088286;28;20495;-87
2023/03/12 00:30:43;;;;;;;1.27;1.17;;;;;;;;;;2088520;28;20393;-88
2023/03/12 00:31:44;;;;;;;;;;;;;;;;;;2088184;28;20020;-88
2023/03/12 00:32:44;;;;;;;1.20;1.10;;;;;;;;;;2080017;28;19920;-87
2023/03/12 00:33:48;;;;;;;2.35;1.30;;;;;;;;;;2090746;28;20051;-89
2023/03/12 00:34:53;;;;;;;1.67;1.20;;;;;;;;;;2095079;28;20120;-88
2023/03/12 00:35:55;;;;;;;1.38;1.27;;;;;;;;;;2097687;28;20052;-88
2023/03/12 00:36:55;;;;;;;1.25;1.10;;;;;;;;;;2098432;28;20024;-89
2023/03/12 00:37:55;;;;;;;;;;;;;;;;;;2093491;28;20479;-89
2023/03/12 00:38:57;;;;;;;1.73;1.50;;;;;;;;;;2092130;28;19978;-88
2023/03/12 00:40:00;;;;;;;2.75;1.20;;;;;;;;;;2080345;28;20037;-88
2023/03/12 00:41:01;;;;;;;1.67;1.40;;;;;;;;;;2089773;28;20120;-89
2023/03/12 00:42:01;;;;;;;;;;;;;;;;;;2097504;28;20020;-89
2023/03/12 00:43:02;;;;;;;1.23;1.13;;;;;;;;;;2089471;28;19908;-87
2023/03/12 00:44:02;;;;;;;;;;;;;;;;;;2091858;28;20025;-88
2023/03/12 00:45:03;;;;;;;1.70;1.30;;;;;;;;;;2089363;28;19995;-89
2023/03/12 00:46:05;;;;;;;1.50;1.30;;;;;;;;;;2088396;28;20345;-87
2023/03/12 00:47:05;;;;;;;1.58;1.48;;;;;;;;;;2096887;28;20072;-88
2023/03/12 00:48:06;;;;;;;;;;;;;;;;;;2098424;28;20013;-89
2023/03/12 00:49:06;;;;;;;2.33;1.60;;;;;;;;;;2097865;28;19909;-89
2023/03/12 00:50:07;;;;;;;;;;;;;;;;;;2098546;28;20029;-89
2023/03/12 00:51:08;;;;;;;2.27;2.07;;;;;;;;;;2096867;28;19908;-88
2023/03/12 00:52:08;;;;;;;1.50;1.40;;;;;;;;;;2089043;28;20340;-86
2023/03/12 00:53:09;;;;;;;;;;;;;;;;;;2098111;28;20028;-89
2023/03/12 00:54:09;;;;;;;4.18;1.50;;;;;;;;;;2091729;28;19915;-87
2023/03/12 00:55:09;;;;;;;;;;;;;;;;;;2092293;28;20031;-89
2023/03/12 00:56:10;;;;;;;2.13;1.40;;;;;;;;;;2092765;28;19909;-89
2023/03/12 00:57:10;;;;;;;2.58;1.40;;;;;;;;;;2090511;28;20025;-87
2023/03/12 00:58:10;;;;;;;;;;;;;;;;;;2090551;28;20025;-87
2023/03/12 00:59:12;;;;;;;1.95;1.35;;;;;;;;;;2088999;28;20384;-88
2023/03/12 01:00:13;;;;;;;1.30;1.20;;;;;;;;;;2091225;28;20025;-90
2023/03/12 01:01:13;;;;;;;3.35;1.45;;;;;;;;;;1734649;28;10246105;-89
2023/03/12 01:02:14;;;;;;;1.40;1.30;;;;;;;;;;2091061;28;20024;-89
2023/03/12 01:03:14;;;;;;;;;;;;;;;;;;2093055;28;20033;-89
2023/03/12 01:04:16;;;;;;;4.90;1.57;;;;;;;;;;2090848;28;19996;-88
2023/03/12 01:05:17;;;;;;;2.05;1.52;;;;;;;;;;2080054;28;20362;-88
2023/03/12 01:06:17;;;;;;;;;;;;;;;;;;2079545;28;20120;-88
2023/03/12 01:07:17;;;;;;;2.40;1.10;;;;;;;;;;2087136;28;20279;-87
2023/03/12 01:08:18;;;;;;;;;;;;;;;;;;2087475;28;20041;-87
2023/03/12 01:09:18;;;;;;;1.48;1.35;;;;;;;;;;2095356;28;19912;-88
2023/03/12 01:10:19;;;;;;;1.98;1.60;;;;;;;;;;2095490;28;20082;-90
2023/03/12 01:11:21;;;;;;;1.25;1.25;;;;;;;;;;2087052;28;20064;-89
2023/03/12 01:12:21;;;;;;;2.35;1.45;;;;;;;;;;2087265;28;20108;-90
2023/03/12 01:13:21;;;;;;;;;;;;;;;;;;2087844;28;20025;-88
2023/03/12 01:14:23;;;;;;;1.98;1.35;;;;;;;;;;1381750;28;10231264;-88
2023/03/12 01:15:23;;;;;;;1.77;1.67;;;;;;;;;;2087109;28;20044;-87
2023/03/12 01:16:26;;;;;;;;;;;;;;;;;;2089242;28;20468;-85
2023/03/12 01:17:27;;;;;;;1.80;1.50;;;;;;;;;;2093890;28;19909;-85
2023/03/12 01:18:27;;;;;;;;;;;;;;;;;;2088192;28;20035;-87
2023/03/12 01:19:28;;;;;;;1.65;1.45;;;;;;;;;;2087150;28;19979;-88
2023/03/12 01:20:28;;;;;;;2.55;1.60;;;;;;;;;;2086964;28;20304;-89
2023/03/12 01:21:29;;;;;;;;;;;;;;;;;;2087875;28;20075;-88
2023/03/12 01:22:29;;;;;;;1.60;1.50;;;;;;;;;;2087141;28;20618;-87
2023/03/12 01:23:29;;;;;;;;;;;;;;;;;;2079255;28;20033;-89
2023/03/12 01:24:30;;;;;;;1.73;1.60;;;;;;;;;;2087157;28;19915;-87
2023/03/12 01:25:32;;;;;;;2.00;1.65;;;;;;;;;;2087090;28;20037;-88
2023/03/12 01:26:33;;;;;;;1.70;1.60;;;;;;;;;;2087502;28;20032;-87
2023/03/12 01:27:33;;;;;;;;;;;;;;;;;;2087161;28;20560;-88
2023/03/12 01:28:33;;;;;;;1.70;1.60;;;;;;;;;;2086788;28;19947;-87
2023/03/12 01:29:34;;;;;;;1.67;1.58;;;;;;;;;;2087543;28;20100;-88
2023/03/12 01:30:34;;;;;;;;;;;;;;;;;;2095505;28;20045;-88
2023/03/12 01:31:36;;;;;;;3.63;1.60;;;;;;;;;;2095388;28;20381;-88
2023/03/12 01:37:18;;;;;;;1.60;1.50;;;;;;;;;;1402458;26;20099;-88
2023/03/12 01:38:19;;;;;;;;;;;;;;;;;;2078769;28;20554;-88
2023/03/12 01:39:20;;;;;;;1.73;1.63;;;;;;;;;;2078439;28;20000;-88
2023/03/12 01:40:24;;;;;;;2.13;1.88;;;;;;;;;;2078589;28;20403;-88
2023/03/12 01:41:26;;;;;;;2.00;1.75;;;;;;;;;;2070677;28;20083;-88
2023/03/12 01:42:27;;;;;;;3.90;1.75;;;;;;;;;;1725278;28;10002647;-87
2023/03/12 01:43:32;;;;;;;;;;;;;;;;;;2078900;28;20309;-87
2023/03/12 01:45:26;;;;;;;2.97;1.70;;;;;;;;;;2086646;28;19908;-88
2023/03/12 01:46:28;;;;;;;1.98;1.77;;;;;;;;;;2053560;28;20054;-89
2023/03/12 01:47:32;;;;;;;1.88;1.77;;;;;;;;;;2053405;28;20500;-88
2023/03/12 01:48:55;;;;;;;4.18;1.80;;;;;;;;;;2064885;28;20499;-89
2023/03/12 01:49:56;;;;;;;1.60;1.50;;;;;;;;;;2063638;28;20112;-90
2023/03/12 01:50:57;;;;;;;;;;;;;;;;;;2078985;28;20021;-87
2023/03/12 01:52:09;;;;;;;1.60;1.50;;;;;;;;;;2078356;28;20373;-88
2023/03/12 01:53:10;;;;;;;3.58;1.52;;;;;;;;;;2078475;28;20188;-88
2023/03/12 01:54:16;;;;;;;3.33;1.90;;;;;;;;;;2078275;28;20136;-88
2023/03/12 01:55:17;;;;;;;2.63;1.98;;;;;;;;;;2078435;28;20021;-89
2023/03/12 01:56:17;;;;;;;;;;;;;;;;;;2080334;28;20026;-88
2023/03/12 01:57:33;;;;;;;2.30;1.80;;;;;;;;;;2080696;28;19935;-88
2023/03/12 01:58:35;;;;;;;1.70;1.60;;;;;;;;;;2080501;28;20036;-88
2023/03/12 01:59:40;;;;;;;7.40;3.42;;;;;;;;;;2082852;28;20163;-88
2023/03/12 02:00:40;;;;;;;2.80;1.80;;;;;;;;;;2089448;28;20044;-89
2023/03/12 02:01:41;;;;;;;;;;;;;;;;;;2089832;28;20561;-89
2023/03/12 02:02:43;;;;;;;1.73;1.60;;;;;;;;;;2089921;28;19913;-89
2023/03/12 02:03:46;;;;;;;1.98;1.73;;;;;;;;;;2089616;28;20033;-90
2023/03/12 02:04:47;;;;;;;2.33;1.80;;;;;;;;;;2082531;28;20021;-89
2023/03/12 02:05:50;;;;;;;;;;;;;;;;;;2079721;28;20049;-89
2023/03/12 02:07:03;;;;;;;2.08;1.70;;;;;;;;;;2086688;28;19928;-89
2023/03/12 02:08:04;;;;;;;4.00;2.00;;;;;;;;;;2078287;28;20025;-89
2023/03/12 02:09:05;;;;;;;;;;;;;;;;;;2079632;28;20021;-89
2023/03/12 02:10:06;;;;;;;1.73;1.63;;;;;;;;;;2082651;28;19979;-88
2023/03/12 02:11:07;;;;;;;;;;;;;;;;;;2083619;28;20474;-89
2023/03/12 02:12:08;;;;;;;1.77;1.63;;;;;;;;;;2079347;28;19908;-89
2023/03/12 02:13:10;;;;;;;3.75;2.05;;;;;;;;;;2078320;28;20139;-88
2023/03/12 02:14:10;;;;;;;2.05;1.75;;;;;;;;;;2078392;28;20063;-89
2023/03/12 02:15:11;;;;;;;;;;;;;;;;;;2079696;28;20361;-87
2023/03/12 02:16:11;;;;;;;1.90;1.80;;;;;;;;;;2079285;28;20358;-87
2023/03/12 02:17:11;;;;;;;;;;;;;;;;;;2078817;28;20025;-88
2023/03/12 02:18:15;;;;;;;2.80;2.00;;;;;;;;;;2078281;28;19970;-88
2023/03/12 02:19:26;;;;;;;2.97;2.67;;;;;;;;;;2078614;28;20049;-89
2023/03/12 02:20:35;;;;;;;1.95;1.75;;;;;;;;;;2078550;28;20026;-90
2023/03/12 02:21:37;;;;;;;1.60;1.50;;;;;;;;;;2071307;28;20026;-90
2023/03/12 02:22:41;;;;;;;4.20;1.80;;;;;;;;;;2070548;28;20026;-88
2023/03/12 02:23:52;;;;;;;3.85;1.95;;;;;;;;;;2070418;28;20026;-88
2023/03/12 02:25:02;;;;;;;2.03;1.80;;;;;;;;;;2078558;28;20452;-87
2023/03/12 02:26:05;;;;;;;1.88;1.77;;;;;;;;;;2079259;28;20073;-86
2023/03/12 02:27:06;;;;;;;1.70;1.58;;;;;;;;;;2071068;28;20509;-89
2023/03/12 02:28:11;;;;;;;3.17;2.10;;;;;;;;;;2078733;28;20415;-87
2023/03/12 02:29:12;;;;;;;3.88;1.70;;;;;;;;;;2079095;28;20022;-88
2023/03/12 02:30:16;;;;;;;2.03;1.67;;;;;;;;;;2078981;28;20103;-89
2023/03/12 02:31:26;;;;;;;4.40;1.73;;;;;;;;;;2079303;28;20435;-88
2023/03/12 02:32:31;;;;;;;1.83;1.73;;;;;;;;;;2079266;28;20448;-88
2023/03/12 02:33:33;;;;;;;2.00;1.90;;;;;;;;;;2078123;28;20036;-89
2023/03/12 02:34:34;;;;;;;5.13;2.10;;;;;;;;;;2078576;28;20100;-87
2023/03/12 02:35:35;;;;;;;;;;;;;;;;;;2078812;28;20420;-87
2023/03/12 02:36:36;;;;;;;2.88;1.80;;;;;;;;;;2078298;28;19916;-86
2023/03/12 02:37:46;;;;;;;2.00;1.90;;;;;;;;;;2078124;28;20408;-87
2023/03/12 02:38:50;;;;;;;2.00;1.90;;;;;;;;;;2079069;28;20154;-87
2023/03/12 02:40:09;;;;;;;3.86;2.10;;;;;;;;;;2016481;28;10094425;-87
2023/03/12 02:41:14;;;;;;;2.10;1.60;;;;;;;;;;2074375;28;20270;-86
2023/03/12 02:42:15;;;;;;;3.67;1.92;;;;;;;;;;2072826;28;20369;-87
2023/03/12 02:43:17;;;;;;;;;;;;;;;;;;2080527;28;20053;-89
2023/03/12 02:44:30;;;;;;;4.38;1.98;;;;;;;;;;2080839;28;20008;-88
2023/03/12 02:45:31;;;;;;;2.22;1.90;;;;;;;;;;2080103;28;20031;-88
2023/03/12 02:46:38;;;;;;;1.90;1.80;;;;;;;;;;2080040;28;20088;-87
2023/03/12 02:47:38;;;;;;;4.10;2.88;;;;;;;;;;2080200;28;20021;-87
2023/03/12 02:48:39;;;;;;;;;;;;;;;;;;2081392;28;20120;-87
2023/03/12 02:49:39;;;;;;;4.57;2.05;;;;;;;;;;2080717;28;19971;-88
2023/03/12 02:50:40;;;;;;;;;;;;;;;;;;2083140;28;20057;-88
2023/03/12 02:51:43;;;;;;;4.63;2.43;;;;;;;;;;2090592;28;19921;-88
2023/03/12 02:52:44;;;;;;;3.85;2.00;;;;;;;;;;2090762;28;20032;-90
2023/03/12 02:53:45;;;;;;;;;;;;;;;;;;2089475;28;20097;-87
2023/03/12 02:54:46;;;;;;;3.58;2.28;;;;;;;;;;2084110;28;20323;-89
2023/03/12 02:55:46;;;;;;;9.13;2.22;;;;;;;;;;2088783;28;20060;-88
2023/03/12 02:56:48;;;;;;;2.15;1.95;;;;;;;;;;1733549;28;10001067;-88
2023/03/12 02:57:48;;;;;;;2.65;2.33;;;;;;;;;;2080319;28;20034;-88
2023/03/12 02:58:48;;;;;;;;;;;;;;;;;;2085699;28;20329;-88
2023/03/12 02:59:49;;;;;;;3.33;2.37;;;;;;;;;;2080567;28;19917;-88
2023/03/12 03:00:49;;;;;;;3.85;2.42;;;;;;;;;;2080921;28;20053;-87
2023/03/12 03:01:55;;;;;;;3.47;2.55;;;;;;;;;;2080011;28;20113;-88
2023/03/12 03:02:57;;;;;;;4.18;2.35;;;;;;;;;;2081087;28;20049;-89
2023/03/12 03:03:59;;;;;;;2.92;2.42;;;;;;;;;;2095737;28;20021;-89
2023/03/12 03:04:59;;;;;;;2.80;2.20;;;;;;;;;;2080122;28;20018;-88
2023/03/12 03:05:59;;;;;;;;;;;;;;;;;;2072181;28;20421;-88
2023/03/12 03:07:00;;;;;;;5.20;2.72;;;;;;;;;;2071542;28;20042;-89
2023/03/12 03:08:00;;;;;;;3.03;2.42;;;;;;;;;;2079866;28;20188;-91
2023/03/12 03:09:01;;;;;;;2.85;2.63;;;;;;;;;;2079559;28;20115;-89
2023/03/12 03:10:03;;;;;;;;;;;;;;;;;;2080482;28;20068;-87
2023/03/12 03:11:04;;;;;;;4.65;2.55;;;;;;;;;;2088961;28;19905;-87
2023/03/12 03:12:05;;;;;;;6.05;2.90;;;;;;;;;;2090360;28;20014;-89
2023/03/12 03:13:05;;;;;;;;;;;;;;;;;;2090378;28;20116;-86
2023/03/12 03:14:06;;;;;;;4.93;3.00;;;;;;;;;;2082346;28;19917;-88
2023/03/12 03:15:06;;;;;;;;;;;;;;;;;;2081660;28;20017;-88
2023/03/12 03:16:07;;;;;;;3.53;3.20;;;;;;;;;;2081030;28;19956;-89
2023/03/12 03:17:07;;;;;;;4.68;2.90;;;;;;;;;;2080887;28;20083;-88
2023/03/12 03:18:08;;;;;;;;;;;;;;;;;;2081438;28;20470;-87
2023/03/12 03:19:09;;;;;;;6.18;3.15;;;;;;;;;;2080968;28;19916;-88
2023/03/12 03:20:10;;;;;;;3.47;3.05;;;;;;;;;;2080909;28;20480;-87
2023/03/12 03:21:15;;;;;;;3.47;3.17;;;;;;;;;;2080776;28;20031;-87
2023/03/12 03:22:16;;;;;;;3.20;2.80;;;;;;;;;;2080085;28;20095;-88
2023/03/12 03:23:17;;;;;;;5.50;3.30;;;;;;;;;;2080029;28;20507;-87
2023/03/12 03:24:17;;;;;;;;;;;;;;;;;;2081197;28;20025;-88
2023/03/12 03:25:21;;;;;;;6.20;3.45;;;;;;;;;;2080607;28;19960;-87
2023/03/12 03:26:23;;;;;;;4.30;3.78;;;;;;;;;;2080534;28;20120;-88
2023/03/12 03:27:24;;;;;;;5.97;3.28;;;;;;;;;;2050338;28;20057;-87
2023/03/12 03:28:26;;;;;;;3.83;3.20;;;;;;;;;;2063459;28;20038;-87
2023/03/12 03:29:27;;;;;;;5.40;3.13;;;;;;;;;;2064210;28;20022;-87
2023/03/12 03:30:27;;;;;;;5.90;3.00;;;;;;;;;;1711481;28;10241325;-87
2023/03/12 03:31:27;;;;;;;3.50;3.17;;;;;;;;;;2064346;28;20089;-87
2023/03/12 03:32:28;;;;;;;9.90;4.97;;;;;;;;;;2071628;28;20056;-88
2023/03/12 03:33:31;;;;;;;7.00;3.50;;;;;;;;;;1720313;28;10164371;-87
2023/03/12 03:34:31;;;;;;;4.00;3.22;;;;;;;;;;2071578;28;20080;-88
2023/03/12 03:35:32;;;;;;;;;;;;;;;;;;2063926;28;20277;-87
2023/03/12 03:36:33;;;;;;;4.65;3.35;;;;;;;;;;2063386;28;20219;-88
2023/03/12 03:37:33;;;;;;;;;;;;;;;;;;2063715;28;20175;-88
2023/03/12 03:38:34;;;;;;;4.17;3.27;;;;;;;;;;2063952;28;19909;-87
2023/03/12 03:39:35;;;;;;;3.60;3.11;;;;;;;;;;1718625;28;10002288;-86
2023/03/12 03:40:35;;;;;;;;;;;;;;;;;;2063322;28;20412;-88
2023/03/12 03:41:36;;;;;;;4.43;3.50;;;;;;;;;;2063502;28;20008;-87
2023/03/12 03:43:25;;;;;;;8.82;3.70;;;;;;;;;;2065313;28;20018;-88
2023/03/12 03:44:33;;;;;;;8.63;3.58;;;;;;;;;;2064192;28;20041;-87
2023/03/12 03:45:33;;;;;;;;;;;;;;;;;;2064788;28;20520;-88
2023/03/12 03:46:34;;;;;;;4.65;3.53;;;;;;;;;;2064030;28;19909;-86
2023/03/12 03:47:34;;;;;;;;;;;;;;;;;;2063848;28;20034;-87
2023/03/12 03:48:35;;;;;;;8.50;3.97;;;;;;;;;;2063271;28;19910;-88
2023/03/12 03:49:35;;;;;;;;;;;;;;;;;;2063913;28;20113;-87
2023/03/12 03:50:39;;;;;;;4.53;4.10;;;;;;;;;;2063520;28;19961;-88
2023/03/12 03:51:43;;;;;;;4.15;3.60;;;;;;;;;;2055469;28;20039;-88
2023/03/12 03:52:43;;;;;;;7.40;3.65;;;;;;;;;;2063680;28;20480;-87
2023/03/12 03:53:44;;;;;;;;;;;;;;;;;;2072077;28;20028;-87
2023/03/12 03:54:44;;;;;;;4.70;3.50;;;;;;;;;;2064144;28;19913;-87
2023/03/12 03:55:45;;;;;;;;;;;;;;;;;;2064617;28;20026;-86
2023/03/12 03:56:46;;;;;;;4.57;4.18;;;;;;;;;;2067136;28;19984;-85
2023/03/12 03:57:47;;;;;;;4.10;3.70;;;;;;;;;;1713369;28;10246334;-87
2023/03/12 03:58:47;;;;;;;4.60;3.85;;;;;;;;;;2064317;28;20133;-87
2023/03/12 03:59:48;;;;;;;;;;;;;;;;;;2063965;28;20081;-87
2023/03/12 04:00:48;;;;;;;7.53;3.67;;;;;;;;;;2071493;28;19909;-86
2023/03/12 04:01:48;;;;;;;;;;;;;;;;;;2063952;28;20023;-87
2023/03/12 04:02:50;;;;;;;5.03;4.10;;;;;;;;;;2063272;28;20301;-87
2023/03/12 04:03:51;;;;;;;4.60;4.00;;;;;;;;;;2063108;28;20101;-86
2023/03/12 04:04:51;;;;;;;;;;;;;;;;;;2063746;28;20120;-88
2023/03/12 04:06:00;;;;;;;5.35;3.30;;;;;;;;;;2071616;28;19909;-88
2023/03/12 04:07:00;;;;;;;5.20;4.00;;;;;;;;;;2070009;28;20088;-86
2023/03/12 04:08:02;;;;;;;;;;;;;;;;;;2063796;28;20528;-87
2023/03/12 04:09:02;;;;;;;6.07;4.25;;;;;;;;;;2063235;28;20428;-89
2023/03/12 04:10:03;;;;;;;;;;;;;;;;;;2063544;28;20030;-86
2023/03/12 04:11:08;;;;;;;7.72;4.22;;;;;;;;;;2062994;28;20372;-87
2023/03/12 04:12:09;;;;;;;7.95;4.38;;;;;;;;;;2063144;28;20049;-89
2023/03/12 04:13:09;;;;;;;;;;;;;;;;;;2072085;28;20080;-88
2023/03/12 04:14:09;;;;;;;4.90;4.40;;;;;;;;;;2071940;28;19920;-89
2023/03/12 04:15:10;;;;;;;;;;;;;;;;;;2064326;28;20058;-89
2023/03/12 04:16:11;;;;;;;6.03;4.63;;;;;;;;;;2064104;28;20337;-88
2023/03/12 04:17:11;;;;;;;7.05;4.55;;;;;;;;;;2063190;28;20028;-88
2023/03/12 04:18:12;;;;;;;;;;;;;;;;;;2063841;28;20026;-87
2023/03/12 04:19:12;;;;;;;4.50;4.10;;;;;;;;;;2063642;28;20363;-87
2023/03/12 04:20:12;;;;;;;;;;;;;;;;;;2064209;28;20026;-87
2023/03/12 04:21:13;;;;;;;4.72;4.22;;;;;;;;;;2065926;28;19910;-87
2023/03/12 04:22:14;;;;;;;;;;;;;;;;;;2064620;28;20026;-88
2023/03/12 04:23:14;;;;;;;4.83;4.43;;;;;;;;;;2063968;28;19916;-88
2023/03/12 04:24:15;;;;;;;;;;;;;;;;;;2064120;28;20052;-88
2023/03/12 04:25:15;;;;;;;4.57;4.18;;;;;;;;;;2063118;28;19913;-88
2023/03/12 04:26:16;;;;;;;;;;;;;;;;;;2063400;28;20030;-88
2023/03/12 04:27:16;;;;;;;7.73;4.23;;;;;;;;;;2063295;28;19909;-89
2023/03/12 04:28:17;;;;;;;4.72;3.88;;;;;;;;;;1716942;28;10058968;-88
2023/03/12 04:29:17;;;;;;;;;;;;;;;;;;2064486;28;20169;-88
2023/03/12 04:30:18;;;;;;;4.63;4.20;;;;;;;;;;2063645;28;20000;-86
2023/03/12 04:31:18;;;;;;;4.13;3.70;;;;;;;;;;2063828;28;20026;-86
2023/03/12 04:32:19;;;;;;;;;;;;;;;;;;2063423;28;20030;-87
2023/03/12 04:33:19;;;;;;;4.93;4.05;;;;;;;;;;2062876;28;20012;-89
2023/03/12 04:34:20;;;;;;;;;;;;;;;;;;2063483;28;20041;-87
2023/03/12 04:35:20;;;;;;;4.35;3.95;;;;;;;;;;2054910;28;19937;-89
2023/03/12 04:36:20;;;;;;;;;;;;;;;;;;2064003;28;20038;-86
2023/03/12 04:37:21;;;;;;;3.97;3.60;;;;;;;;;;2071124;28;19913;-86
2023/03/12 04:38:22;;;;;;;;;;;;;;;;;;2071610;28;20025;-88
2023/03/12 04:39:23;;;;;;;4.03;3.70;;;;;;;;;;2063742;28;20308;-85
2023/03/12 04:40:23;;;;;;;;;;;;;;;;;;2064159;28;20039;-86
2023/03/12 04:41:24;;;;;;;5.93;4.28;;;;;;;;;;2063061;28;20009;-88
2023/03/12 04:42:25;;;;;;;4.35;3.92;;;;;;;;;;2070939;28;20433;-88
2023/03/12 04:43:25;;;;;;;;;;;;;;;;;;2071587;28;20026;-88
2023/03/12 04:44:26;;;;;;;4.30;3.90;;;;;;;;;;2055339;28;19910;-89
2023/03/12 04:45:26;;;;;;;;;;;;;;;;;;2063316;28;20557;-88
2023/03/12 04:46:27;;;;;;;7.18;3.88;;;;;;;;;;2062992;28;19961;-88
2023/03/12 04:47:28;;;;;;;4.15;3.75;;;;;;;;;;2062765;28;20065;-88
2023/03/12 04:48:29;;;;;;;4.13;3.70;;;;;;;;;;2063424;28;20500;-88
2023/03/12 04:49:29;;;;;;;;;;;;;;;;;;2064479;28;20482;-87
2023/03/12 04:50:30;;;;;;;4.37;3.97;;;;;;;;;;2068211;28;20447;-88
2023/03/12 04:51:30;;;;;;;;;;;;;;;;;;2064383;28;20204;-89
2023/03/12 04:52:31;;;;;;;4.38;3.70;;;;;;;;;;2062978;28;20190;-88
2023/03/12 04:53:31;;;;;;;;;;;;;;;;;;2071580;28;20032;-86
2023/03/12 04:54:32;;;;;;;3.70;3.40;;;;;;;;;;2062809;28;20013;-86
2023/03/12 04:55:32;;;;;;;;;;;;;;;;;;2063525;28;20030;-88
2023/03/12 04:56:32;;;;;;;4.67;3.33;;;;;;;;;;2063800;28;20020;-88
2023/03/12 04:57:33;;;;;;;;;;;;;;;;;;2063336;28;20560;-87
2023/03/12 04:58:35;;;;;;;6.28;4.05;;;;;;;;;;2062880;28;20040;-88
2023/03/12 04:59:35;;;;;;;4.25;3.38;;;;;;;;;;2063031;28;20136;-88
2023/03/12 05:00:35;;;;;;;;;;;;;;;;;;2064300;28;20039;-86
2023/03/12 05:01:36;;;;;;;4.22;3.65;;;;;;;;;;2063918;28;19913;-87
2023/03/12 05:02:38;;;;;;;4.22;3.53;;;;;;;;;;2063227;28;20081;-85
2023/03/12 05:03:38;;;;;;;4.20;3.78;;;;;;;;;;2062427;28;20033;-88
2023/03/12 05:04:38;;;;;;;;;;;;;;;;;;2063316;28;20157;-87
2023/03/12 05:05:39;;;;;;;4.35;3.92;;;;;;;;;;2062855;28;20012;-87
2023/03/12 05:06:39;;;;;;;5.72;4.50;;;;;;;;;;1704422;28;10215277;-87
2023/03/12 05:07:39;;;;;;;;;;;;;;;;;;2063353;28;20209;-87
2023/03/12 05:08:40;;;;;;;7.78;5.50;;;;;;;;;;2062745;28;19913;-87
2023/03/12 05:09:40;;;;;;;5.18;4.68;;;;;;;;;;2062872;28;20421;-87
2023/03/12 05:10:44;;;;;;;;;;;;;;;;;;2064043;28;20110;-87
2023/03/12 05:11:44;;;;;;;5.55;4.78;;;;;;;;;;2071007;28;19983;-85
2023/03/12 05:12:44;;;;;;;;;;;;;;;;;;2071474;28;20022;-87
2023/03/12 05:13:46;;;;;;;5.28;4.78;;;;;;;;;;2063692;28;20359;-88
2023/03/12 05:14:46;;;;;;;4.93;4.40;;;;;;;;;;2062522;28;20591;-87
2023/03/12 05:15:49;;;;;;;;;;;;;;;;;;2063197;28;20018;-87
2023/03/12 05:16:49;;;;;;;5.18;3.83;;;;;;;;;;2062615;28;19913;-89
2023/03/12 05:17:50;;;;;;;;;;;;;;;;;;2055198;28;20100;-88
2023/03/12 05:18:51;;;;;;;5.73;4.13;;;;;;;;;;2054110;28;19929;-88
2023/03/12 05:19:52;;;;;;;5.32;3.95;;;;;;;;;;2062472;28;20026;-88
2023/03/12 05:21:04;;;;;;;;;;;;;;;;;;2063164;28;20109;-88
2023/03/12 05:22:04;;;;;;;4.32;3.30;;;;;;;;;;2063328;28;19980;-88
2023/03/12 05:23:05;;;;;;;;;;;;;;;;;;2060741;28;20050;-88
2023/03/12 05:24:07;;;;;;;3.90;3.50;;;;;;;;;;2063459;28;19917;-88
2023/03/12 05:25:07;;;;;;;4.03;3.17;;;;;;;;;;2065035;28;20025;-89
2023/03/12 05:26:24;;;;;;;;;;;;;;;;;;2073588;28;20041;-86
2023/03/12 05:27:25;;;;;;;3.90;3.40;;;;;;;;;;2073013;28;19940;-86
2023/03/12 05:28:27;;;;;;;;;;;;;;;;;;2073353;28;20029;-86
2023/03/12 05:29:28;;;;;;;;;;;;;;;;;;2073238;28;19982;-87
2023/03/12 05:30:28;;;;;;;5.28;3.70;;;;;;;;;;2071327;28;19909;-86
2023/03/12 05:31:31;;;;;;;;;;;;;;;;;;2066471;28;20031;-87
2023/03/12 05:32:33;;;;;;;5.65;3.47;;;;;;;;;;2063609;28;19917;-87
2023/03/12 05:33:34;;;;;;;3.95;3.58;;;;;;;;;;2063395;28;20034;-89
2023/03/12 05:34:34;;;;;;;;;;;;;;;;;;2065355;28;20018;-87
2023/03/12 05:35:35;;;;;;;3.35;3.05;;;;;;;;;;2065102;28;20585;-89
2023/03/12 05:36:35;;;;;;;;;;;;;;;;;;2065484;28;20036;-88
2023/03/12 05:37:41;;;;;;;4.88;2.75;;;;;;;;;;2066986;28;19957;-95
2023/03/12 05:40:11;;;;;;;3.40;3.20;;;;;;;;;;2210705;23;20113;-94
2023/03/12 05:44:41;;;;;;;4.63;3.13;;;;;;;;;;2051038;28;20106;-89
2023/03/12 05:45:41;;;;;;;2.90;2.70;;;;;;;;;;2048036;28;20391;-86
2023/03/12 05:46:42;;;;;;;;;;;;;;;;;;2047916;28;20082;-87
2023/03/12 05:47:42;;;;;;;3.13;2.83;;;;;;;;;;2054777;28;19920;-87
2023/03/12 05:48:43;;;;;;;2.80;2.60;;;;;;;;;;2046690;28;20413;-87
2023/03/12 05:49:43;;;;;;;2.67;2.47;;;;;;;;;;2038899;29;20106;-87
2023/03/12 05:50:44;;;;;;;;;;;;;;;;;;2047188;29;20059;-88
2023/03/12 05:51:47;;;;;;;4.50;2.60;;;;;;;;;;2047417;28;19957;-88
2023/03/12 05:52:47;;;;;;;3.60;2.63;;;;;;;;;;2046866;29;20019;-86
2023/03/12 05:53:47;;;;;;;;;;;;;;;;;;2046715;29;20518;-87
2023/03/12 05:54:48;;;;;;;2.45;2.28;;;;;;;;;;2046767;29;19910;-86
2023/03/12 05:55:49;;;;;;;;;;;;;;;;;;2054328;28;20135;-88
2023/03/12 05:56:49;;;;;;;3.40;2.70;;;;;;;;;;2046214;28;19910;-88
2023/03/12 05:57:51;;;;;;;3.03;2.70;;;;;;;;;;2046287;29;20062;-88
2023/03/12 05:58:51;;;;;;;3.33;2.53;;;;;;;;;;2045995;29;20411;-89
2023/03/12 05:59:51;;;;;;;;;;;;;;;;;;2046492;29;20027;-88
2023/03/12 06:00:52;;;;;;;3.07;2.87;;;;;;;;;;2047702;29;19973;-88
2023/03/12 06:01:52;;;;;;;3.65;2.55;;;;;;;;;;1690649;28;10423262;-88
2023/03/12 06:02:52;;;;;;;;;;;;;;;;;;2038646;29;20474;-86
2023/03/12 06:03:53;;;;;;;5.63;3.57;;;;;;;;;;2046044;29;19926;-88
2023/03/12 06:04:54;;;;;;;4.05;2.83;;;;;;;;;;2037999;29;20435;-89
2023/03/12 06:05:55;;;;;;;;;;;;;;;;;;2039039;29;20051;-90
2023/03/12 06:06:55;;;;;;;2.87;2.60;;;;;;;;;;2038354;29;19954;-88
2023/03/12 06:07:55;;;;;;;;;;;;;;;;;;2038684;29;20280;-87
2023/03/12 06:08:56;;;;;;;3.05;2.83;;;;;;;;;;2045959;29;20392;-88
2023/03/12 06:10:06;;;;;;;3.30;2.66;;;;;;;;;;2036066;28;10002369;-86
2023/03/12 06:11:07;;;;;;;;;;;;;;;;;;2039919;29;20281;-87
2023/03/12 06:12:07;;;;;;;2.80;2.60;;;;;;;;;;2047021;29;20029;-86
2023/03/12 06:13:08;;;;;;;;;;;;;;;;;;2047717;29;20078;-87
2023/03/12 06:14:08;;;;;;;3.50;2.50;;;;;;;;;;2047025;28;19910;-87
2023/03/12 06:15:09;;;;;;;;;;;;;;;;;;2047362;28;20102;-87
2023/03/12 06:16:17;;;;;;;4.67;2.90;;;;;;;;;;2047157;28;19941;-86
2023/03/12 06:17:18;;;;;;;4.03;3.22;;;;;;;;;;2046211;28;20027;-86
2023/03/12 06:18:18;;;;;;;;;;;;;;;;;;2046500;29;20066;-86
2023/03/12 06:19:20;;;;;;;3.70;2.70;;;;;;;;;;2054122;28;20375;-87
2023/03/12 06:20:22;;;;;;;2.95;2.40;;;;;;;;;;2054156;28;20034;-86
2023/03/12 06:21:26;;;;;;;5.15;3.03;;;;;;;;;;2046211;28;20118;-86
2023/03/12 06:22:28;;;;;;;3.85;3.30;;;;;;;;;;2046200;29;20031;-87
2023/03/12 06:23:28;;;;;;;2.95;2.38;;;;;;;;;;2047008;28;20122;-87
2023/03/12 06:24:28;;;;;;;;;;;;;;;;;;2048375;28;20151;-85
2023/03/12 06:25:29;;;;;;;6.75;2.97;;;;;;;;;;2046129;29;20301;-86
2023/03/12 06:26:29;;;;;;;;;;;;;;;;;;2047079;29;20089;-87
2023/03/12 06:27:30;;;;;;;12.60;2.97;;;;;;;;;;2046439;28;19968;-86
2023/03/12 06:28:30;;;;;;;;;;;;;;;;;;2046487;28;20629;-88
2023/03/12 06:29:30;;;;;;;3.13;2.73;;;;;;;;;;2045636;29;19959;-87
2023/03/12 06:30:32;;;;;;;;;;;;;;;;;;2047053;29;20051;-86
2023/03/12 06:31:33;;;;;;;7.88;3.97;;;;;;;;;;2054104;28;19910;-86
2023/03/12 06:32:33;;;;;;;;;;;;;;;;;;2047592;28;20031;-86
2023/03/12 06:33:34;;;;;;;3.60;3.30;;;;;;;;;;2046994;28;20419;-86